Time;durP1;ratioP1;P1;durP2;ratioP2;P2;SDS_P1;SDS_P2;PMS_P1;PMS_P2;Temp;Humidity;BMP_temperature;BMP_pressure;BME280_temperature;BME280_humidity;BME280_pressure;Samples;Min_cycle;Max_cycle;Signal;HPM_P1;HPM_P2
2023/08/03 00:02:36;;;;;;;19.35;17.25;;;20.30;99.90;;;;;;5229660;28;20107;-76
2023/08/03 00:05:08;;;;;;;20.80;17.80;;;20.10;99.90;;;;;;5229542;28;20021;-75
2023/08/03 00:07:38;;;;;;;22.05;16.95;;;20.20;99.90;;;;;;5229306;28;20402;-75
2023/08/03 00:10:10;;;;;;;21.77;17.52;;;20.20;99.90;;;;;;5229250;28;20115;-75
2023/08/03 00:12:41;;;;;;;18.10;15.80;;;20.20;99.90;;;;;;5228528;28;20094;-75
2023/08/03 00:15:13;;;;;;;20.70;15.30;;;20.10;99.90;;;;;;5228842;28;20028;-75
2023/08/03 00:17:45;;;;;;;16.38;14.60;;;20.20;99.90;;;;;;5226532;28;21049;-75
2023/08/03 00:20:15;;;;;;;18.83;16.38;;;20.10;99.90;;;;;;5226495;28;20028;-75
2023/08/03 00:22:46;;;;;;;21.23;16.00;;;20.00;99.90;;;;;;5227935;28;20024;-75
2023/08/03 00:25:17;;;;;;;19.80;16.65;;;20.10;99.90;;;;;;5227619;28;20017;-75
2023/08/03 00:27:48;;;;;;;19.52;16.55;;;20.00;99.90;;;;;;5217437;28;20025;-75
2023/08/03 00:30:19;;;;;;;18.83;16.15;;;20.10;99.90;;;;;;5207006;28;20032;-75
2023/08/03 00:32:50;;;;;;;17.88;15.43;;;20.20;99.90;;;;;;5206707;28;20041;-75
2023/08/03 00:35:20;;;;;;;19.85;16.98;;;20.10;99.90;;;;;;5207656;28;20052;-75
2023/08/03 00:37:53;;;;;;;19.02;16.30;;;20.10;99.90;;;;;;5208035;28;20104;-75
2023/08/03 00:40:24;;;;;;;16.40;14.73;;;20.00;99.90;;;;;;5208062;28;20095;-75
2023/08/03 00:42:55;;;;;;;19.58;16.42;;;20.00;99.90;;;;;;5206517;28;20059;-74
2023/08/03 00:45:26;;;;;;;18.80;16.50;;;19.90;99.90;;;;;;5207890;28;20010;-75
2023/08/03 00:47:57;;;;;;;21.35;18.48;;;19.80;99.90;;;;;;5207361;28;20168;-75
2023/08/03 00:50:28;;;;;;;20.63;18.48;;;19.80;99.90;;;;;;5207728;28;20461;-75
2023/08/03 00:52:59;;;;;;;19.42;17.20;;;19.80;99.90;;;;;;5207562;28;20500;-74
2023/08/03 00:55:31;;;;;;;20.25;17.35;;;19.80;99.90;;;;;;5207885;28;20026;-75
2023/08/03 00:58:02;;;;;;;19.70;16.50;;;19.80;99.90;;;;;;5206440;28;20013;-75
2023/08/03 01:00:34;;;;;;;20.92;18.17;;;20.00;99.90;;;;;;5207796;28;20025;-74
2023/08/03 01:03:05;;;;;;;23.33;18.30;;;19.80;99.90;;;;;;5207712;28;20115;-75
2023/08/03 01:05:35;;;;;;;20.17;16.75;;;19.60;99.90;;;;;;5207809;28;20072;-76
2023/08/03 01:08:06;;;;;;;20.38;17.38;;;19.80;99.90;;;;;;5207366;28;20029;-75
2023/08/03 01:10:37;;;;;;;21.73;16.45;;;19.60;99.90;;;;;;5206860;28;20025;-75
2023/08/03 01:13:08;;;;;;;20.48;18.27;;;19.70;99.90;;;;;;5204978;28;20036;-75
2023/08/03 01:15:39;;;;;;;19.77;17.63;;;19.70;99.90;;;;;;5206146;28;20100;-75
2023/08/03 01:18:10;;;;;;;19.98;18.08;;;19.60;99.90;;;;;;5205471;28;20179;-75
2023/08/03 01:20:43;;;;;;;20.55;18.23;;;19.60;99.90;;;;;;5206164;28;20478;-75
2023/08/03 01:23:14;;;;;;;21.02;18.83;;;19.70;99.90;;;;;;5204638;28;20017;-75
2023/08/03 01:25:45;;;;;;;20.65;17.92;;;19.50;99.90;;;;;;5206110;28;20106;-75
2023/08/03 01:28:16;;;;;;;19.88;17.88;;;19.50;99.90;;;;;;5206681;28;20124;-75
2023/08/03 01:30:47;;;;;;;19.63;17.70;;;19.40;99.90;;;;;;5207284;28;20017;-75
2023/08/03 01:33:18;;;;;;;19.92;17.83;;;19.40;99.90;;;;;;5207005;28;20065;-75
2023/08/03 01:35:51;;;;;;;19.65;17.60;;;19.30;99.90;;;;;;5206751;28;20115;-80
2023/08/03 01:38:22;;;;;;;20.58;17.27;;;19.30;99.90;;;;;;5207047;28;20377;-75
2023/08/03 01:40:53;;;;;;;19.23;17.17;;;19.20;99.90;;;;;;5205533;28;20026;-75
2023/08/03 01:43:24;;;;;;;17.70;15.98;;;19.20;99.90;;;;;;5206821;28;20107;-75
2023/08/03 01:45:55;;;;;;;18.38;16.48;;;19.20;99.90;;;;;;5206636;28;20056;-75
2023/08/03 01:48:26;;;;;;;19.60;15.85;;;19.20;99.90;;;;;;5206503;28;20061;-77
2023/08/03 01:50:57;;;;;;;17.50;15.77;;;19.40;99.90;;;;;;5206458;28;20029;-75
2023/08/03 01:53:28;;;;;;;17.35;15.60;;;19.30;99.90;;;;;;5206752;28;20404;-76
2023/08/03 01:55:58;;;;;;;17.00;15.32;;;19.20;99.90;;;;;;5206600;28;20033;-75
2023/08/03 01:58:29;;;;;;;16.73;15.13;;;19.30;99.90;;;;;;5206423;28;20563;-75
2023/08/03 02:01:00;;;;;;;17.38;15.57;;;19.30;99.90;;;;;;5205157;28;20087;-75
2023/08/03 02:03:31;;;;;;;16.75;14.80;;;19.20;99.90;;;;;;5204760;28;20025;-75
2023/08/03 02:06:02;;;;;;;17.27;14.50;;;19.20;99.90;;;;;;5205602;28;20037;-75
2023/08/03 02:08:32;;;;;;;16.38;13.55;;;19.20;99.90;;;;;;5205701;28;20083;-75
2023/08/03 02:11:03;;;;;;;13.75;12.18;;;19.10;99.90;;;;;;5203590;28;20030;-75
2023/08/03 02:13:34;;;;;;;15.25;13.25;;;19.30;99.90;;;;;;5205043;28;20034;-75
2023/08/03 02:16:10;;;;;;;14.32;12.45;;;19.10;99.90;;;;;;5205166;28;20044;-75
2023/08/03 02:18:41;;;;;;;14.00;12.65;;;19.00;99.90;;;;;;5204967;28;20048;-75
2023/08/03 02:21:11;;;;;;;13.82;12.45;;;19.10;99.90;;;;;;5204876;28;20021;-75
2023/08/03 02:23:42;;;;;;;12.77;11.57;;;19.10;99.90;;;;;;5205367;28;20430;-75
2023/08/03 02:26:13;;;;;;;12.82;11.52;;;19.00;99.90;;;;;;5206216;28;20036;-75
2023/08/03 02:28:44;;;;;;;13.68;12.20;;;19.00;99.90;;;;;;5205894;28;20080;-75
2023/08/03 02:31:15;;;;;;;13.43;12.00;;;19.00;99.90;;;;;;5206092;28;20368;-75
2023/08/03 02:33:46;;;;;;;13.05;11.82;;;18.90;99.90;;;;;;5205898;28;20527;-75
2023/08/03 02:36:17;;;;;;;12.50;11.40;;;18.90;99.90;;;;;;5205926;28;20026;-75
2023/08/03 02:38:47;;;;;;;12.05;10.85;;;19.10;99.90;;;;;;5205630;28;20033;-74
2023/08/03 02:41:18;;;;;;;11.10;10.13;;;19.00;99.90;;;;;;5206082;28;20105;-75
2023/08/03 02:43:49;;;;;;;11.98;10.85;;;18.70;99.90;;;;;;5204815;28;20091;-73
2023/08/03 02:46:20;;;;;;;11.25;10.10;;;18.70;99.90;;;;;;5205846;28;20029;-73
2023/08/03 02:48:51;;;;;;;11.25;9.98;;;18.80;99.90;;;;;;5204360;28;20084;-74
2023/08/03 02:51:22;;;;;;;11.10;9.85;;;18.80;99.90;;;;;;5205679;28;20032;-74
2023/08/03 02:53:53;;;;;;;10.98;9.68;;;18.90;99.90;;;;;;5205754;28;20049;-74
2023/08/03 02:56:24;;;;;;;11.68;10.43;;;18.90;99.90;;;;;;5204300;28;20026;-73
2023/08/03 02:58:54;;;;;;;12.07;10.30;;;19.00;99.90;;;;;;5205700;28;20029;-74
2023/08/03 03:01:25;;;;;;;10.98;9.93;;;19.00;99.90;;;;;;5205301;28;20064;-74
2023/08/03 03:03:56;;;;;;;10.88;9.75;;;18.70;99.90;;;;;;5204062;28;20057;-74
2023/08/03 03:06:27;;;;;;;9.32;8.48;;;18.90;99.90;;;;;;5204495;28;20080;-74
2023/08/03 03:08:58;;;;;;;10.77;9.68;;;18.80;99.90;;;;;;5204366;28;20031;-74
2023/08/03 03:11:29;;;;;;;10.60;9.60;;;18.90;99.90;;;;;;5204435;28;20022;-74
2023/08/03 03:13:59;;;;;;;10.32;9.32;;;18.90;99.90;;;;;;5203374;28;20576;-74
2023/08/03 03:16:30;;;;;;;10.20;9.20;;;19.00;99.90;;;;;;5208101;28;20025;-74
2023/08/03 03:19:01;;;;;;;10.45;9.45;;;19.00;99.90;;;;;;5208397;28;20034;-73
2023/08/03 03:21:32;;;;;;;9.77;8.80;;;19.00;99.90;;;;;;5216174;28;20029;-74
2023/08/03 03:24:03;;;;;;;10.82;9.35;;;18.90;99.90;;;;;;5228951;28;20360;-74
2023/08/03 03:26:34;;;;;;;9.70;8.18;;;19.00;99.90;;;;;;5230066;28;20020;-74
2023/08/03 03:29:05;;;;;;;10.70;9.65;;;19.10;99.90;;;;;;5229926;28;20086;-74
2023/08/03 03:31:36;;;;;;;10.30;9.25;;;19.10;99.90;;;;;;5230163;28;20035;-73
2023/08/03 03:34:07;;;;;;;9.65;8.75;;;18.90;99.90;;;;;;5229808;28;20112;-73
2023/08/03 03:36:38;;;;;;;11.32;9.75;;;19.00;99.90;;;;;;5229828;28;20021;-74
2023/08/03 03:39:09;;;;;;;17.25;9.57;;;18.90;99.90;;;;;;5227427;28;20082;-74
2023/08/03 03:41:40;;;;;;;14.98;9.38;;;18.90;99.90;;;;;;5227070;28;20036;-74
2023/08/03 03:44:10;;;;;;;13.43;8.55;;;19.00;99.90;;;;;;5228253;28;20095;-74
2023/08/03 03:46:41;;;;;;;11.82;8.65;;;19.20;99.90;;;;;;5226621;28;20033;-74
2023/08/03 03:49:12;;;;;;;14.50;9.88;;;19.20;99.90;;;;;;5228190;28;20045;-75
2023/08/03 03:51:43;;;;;;;11.10;9.68;;;19.30;99.90;;;;;;5227458;28;20032;-73
2023/08/03 03:54:14;;;;;;;20.67;10.25;;;19.30;99.90;;;;;;5229460;28;20575;-76
2023/08/03 03:56:44;;;;;;;15.00;9.73;;;19.50;99.90;;;;;;5228992;28;20013;-74
2023/08/03 03:59:15;;;;;;;14.57;9.95;;;19.50;99.90;;;;;;5229037;28;20101;-73
2023/08/03 04:01:46;;;;;;;21.17;10.70;;;19.40;99.90;;;;;;5227406;28;20025;-74
2023/08/03 04:04:17;;;;;;;10.13;9.02;;;19.70;99.90;;;;;;5227996;28;20032;-74
2023/08/03 04:06:48;;;;;;;10.35;9.40;;;19.60;99.90;;;;;;5227857;28;20016;-74
2023/08/03 04:09:18;;;;;;;13.50;11.00;;;19.80;99.90;;;;;;5226502;28;20029;-73
2023/08/03 04:11:49;;;;;;;11.80;10.60;;;20.00;99.90;;;;;;5227819;28;20029;-74
2023/08/03 04:14:20;;;;;;;11.40;10.50;;;20.00;99.90;;;;;;5226425;28;20415;-74
2023/08/03 04:16:52;;;;;;;12.82;11.82;;;20.20;99.90;;;;;;5226664;28;20021;-73
2023/08/03 04:19:23;;;;;;;12.13;11.02;;;20.30;99.90;;;;;;5227818;28;20025;-74
2023/08/03 04:21:54;;;;;;;12.63;11.55;;;20.40;99.90;;;;;;5228939;28;20032;-73
2023/08/03 04:24:24;;;;;;;13.90;12.63;;;20.60;99.90;;;;;;5228849;28;20570;-75
2023/08/03 04:26:55;;;;;;;12.65;11.63;;;20.60;99.90;;;;;;5227608;28;20626;-74
2023/08/03 04:29:26;;;;;;;14.15;13.05;;;20.70;99.90;;;;;;5216444;28;20116;-74
2023/08/03 04:31:57;;;;;;;11.50;10.60;;;20.80;99.90;;;;;;5226961;28;20036;-77
2023/08/03 04:34:30;;;;;;;11.88;10.85;;;20.90;99.90;;;;;;5228657;28;20032;-73
2023/08/03 04:37:00;;;;;;;11.20;10.30;;;20.90;99.90;;;;;;5227243;28;20380;-73
2023/08/03 04:39:31;;;;;;;11.35;10.45;;;21.10;99.90;;;;;;5228485;28;20029;-74
2023/08/03 04:42:02;;;;;;;12.55;11.55;;;21.00;99.90;;;;;;5228255;28;20021;-74
2023/08/03 04:44:33;;;;;;;11.38;10.35;;;21.30;99.90;;;;;;5228486;28;20110;-74
2023/08/03 04:47:04;;;;;;;12.20;11.10;;;21.40;99.90;;;;;;5227982;28;20086;-74
2023/08/03 04:49:35;;;;;;;11.65;10.65;;;21.50;99.90;;;;;;5228590;28;20024;-74
2023/08/03 04:52:06;;;;;;;12.88;11.68;;;21.60;99.90;;;;;;5226822;28;20488;-74
2023/08/03 04:54:37;;;;;;;12.15;11.00;;;21.70;99.90;;;;;;5226043;28;20032;-75
2023/08/03 04:57:08;;;;;;;12.27;11.00;;;21.80;99.90;;;;;;5226968;28;20029;-74
2023/08/03 04:59:39;;;;;;;12.82;11.63;;;22.00;99.90;;;;;;5227052;28;20499;-74
2023/08/03 05:02:10;;;;;;;12.30;11.23;;;22.10;99.90;;;;;;5225990;28;20028;-74
2023/08/03 05:04:40;;;;;;;12.20;11.07;;;22.20;99.90;;;;;;5224527;28;20036;-74
2023/08/03 05:07:11;;;;;;;11.45;10.50;;;22.30;99.90;;;;;;5226274;28;20492;-74
2023/08/03 05:09:42;;;;;;;12.40;10.98;;;22.30;99.90;;;;;;5225323;28;20112;-74
2023/08/03 05:12:13;;;;;;;12.55;11.30;;;22.50;99.90;;;;;;5226964;28;20124;-74
2023/08/03 05:14:44;;;;;;;12.10;11.00;;;22.70;99.90;;;;;;5227905;28;20037;-74
2023/08/03 05:17:15;;;;;;;12.75;11.68;;;22.80;99.90;;;;;;5227354;28;20056;-74
2023/08/03 05:19:47;;;;;;;12.52;11.43;;;22.90;99.90;;;;;;5227627;28;20115;-74
2023/08/03 05:22:17;;;;;;;11.55;10.40;;;23.10;99.90;;;;;;5226280;28;20419;-74
2023/08/03 05:24:48;;;;;;;11.98;10.80;;;23.30;99.90;;;;;;5227496;28;20029;-74
2023/08/03 05:27:19;;;;;;;10.80;9.80;;;23.30;99.90;;;;;;5227815;28;20405;-74
2023/08/03 05:29:51;;;;;;;10.98;9.98;;;23.50;99.90;;;;;;5227255;28;20119;-74
2023/08/03 05:32:25;;;;;;;9.15;8.32;;;23.70;99.90;;;;;;5226371;28;20029;-74
2023/08/03 05:34:57;;;;;;;9.15;8.30;;;23.90;99.90;;;;;;5227501;28;20033;-74
2023/08/03 05:37:28;;;;;;;9.10;8.30;;;24.00;99.90;;;;;;5225288;28;20057;-74
2023/08/03 05:40:04;;;;;;;7.90;7.13;;;24.10;99.90;;;;;;5227721;28;20035;-73
2023/08/03 05:42:41;;;;;;;9.13;7.05;;;24.30;99.90;;;;;;5226357;28;20032;-74
2023/08/03 05:45:14;;;;;;;7.47;6.78;;;24.50;99.90;;;;;;5226064;28;20029;-74
2023/08/03 05:47:45;;;;;;;7.13;6.53;;;24.70;99.90;;;;;;5226911;28;20112;-75
2023/08/03 05:50:18;;;;;;;7.22;6.53;;;24.80;99.90;;;;;;5226163;28;20095;-74
2023/08/03 05:52:50;;;;;;;6.72;6.22;;;24.90;99.90;;;;;;5226303;28;20108;-74
2023/08/03 05:55:22;;;;;;;8.10;7.30;;;25.00;99.90;;;;;;5224519;28;20029;-74
2023/08/03 05:57:54;;;;;;;7.63;6.93;;;25.30;99.90;;;;;;5225198;28;20024;-74
2023/08/03 06:00:28;;;;;;;8.20;7.50;;;25.40;99.90;;;;;;5225895;28;20591;-74
2023/08/03 06:03:00;;;;;;;8.93;8.13;;;25.70;99.90;;;;;;5225959;28;20016;-75
2023/08/03 06:05:44;;;;;;;11.48;10.63;;;25.30;99.90;;;;;;5224067;28;20107;-74
2023/08/03 06:08:22;;;;;;;12.27;11.38;;;25.80;99.90;;;;;;5226530;28;20540;-74
2023/08/03 06:11:00;;;;;;;13.52;12.57;;;26.00;99.90;;;;;;5224989;28;20025;-74
2023/08/03 06:13:34;;;;;;;12.68;11.80;;;26.10;99.90;;;;;;5210823;28;20041;-74
2023/08/03 06:16:09;;;;;;;17.27;15.57;;;26.00;99.90;;;;;;5226721;28;20052;-74
2023/08/03 06:18:52;;;;;;;11.85;10.93;;;26.50;99.90;;;;;;5226268;28;20048;-74
2023/08/03 06:21:25;;;;;;;9.10;8.40;;;26.60;99.90;;;;;;5226453;28;20013;-74
2023/08/03 06:23:58;;;;;;;8.98;8.15;;;27.00;99.90;;;;;;5225322;28;20468;-75
2023/08/03 06:26:32;;;;;;;8.20;7.40;;;27.00;99.90;;;;;;5225464;28;20040;-75
2023/08/03 06:29:05;;;;;;;8.98;8.10;;;27.00;99.90;;;;;;5226790;28;20029;-74
2023/08/03 06:31:40;;;;;;;10.02;8.60;;;27.40;99.90;;;;;;5225285;28;20028;-74
2023/08/03 06:34:12;;;;;;;8.90;8.00;;;27.60;99.90;;;;;;5225455;28;20029;-75
2023/08/03 06:36:43;;;;;;;9.48;8.45;;;27.60;99.90;;;;;;5226555;28;20081;-74
2023/08/03 06:39:15;;;;;;;9.18;8.48;;;27.80;99.90;;;;;;5226595;28;20056;-74
2023/08/03 06:41:46;;;;;;;11.40;8.68;;;27.90;99.90;;;;;;5226446;28;20430;-74
2023/08/03 06:44:16;;;;;;;8.68;7.85;;;28.00;99.90;;;;;;5225048;28;20024;-75
2023/08/03 06:46:47;;;;;;;8.05;7.25;;;28.10;99.90;;;;;;5224811;28;20025;-74
2023/08/03 06:49:18;;;;;;;7.35;6.68;;;28.40;99.90;;;;;;5227934;28;20110;-74
2023/08/03 06:51:49;;;;;;;10.23;7.03;;;28.40;99.90;;;;;;5228071;28;20116;-74
2023/08/03 06:54:20;;;;;;;8.50;6.35;;;28.50;99.90;;;;;;5229222;28;20141;-75
2023/08/03 06:56:50;;;;;;;6.45;5.95;;;28.70;99.90;;;;;;5229528;28;20681;-75
2023/08/03 06:59:21;;;;;;;8.13;7.32;;;28.80;99.90;;;;;;5229469;28;20025;-75
2023/08/03 07:01:52;;;;;;;9.23;7.38;;;28.90;99.90;;;;;;5228272;28;20384;-75
2023/08/03 07:04:23;;;;;;;7.82;7.20;;;28.90;99.90;;;;;;5230293;28;20014;-74
2023/08/03 07:06:54;;;;;;;7.75;7.10;;;28.90;99.90;;;;;;5230555;28;20070;-75
2023/08/03 07:09:25;;;;;;;8.20;7.47;;;29.10;99.90;;;;;;5228845;28;20017;-74
2023/08/03 07:11:56;;;;;;;9.70;6.53;;;29.40;99.90;;;;;;5230353;28;20029;-75
2023/08/03 07:14:26;;;;;;;7.30;6.60;;;29.40;99.90;;;;;;5230238;28;20025;-75
2023/08/03 07:16:57;;;;;;;10.18;6.18;;;29.50;99.90;;;;;;5229011;28;20044;-74
2023/08/03 07:19:28;;;;;;;6.07;5.47;;;29.60;99.90;;;;;;5227722;28;20021;-75
2023/08/03 07:21:59;;;;;;;6.78;6.00;;;29.60;99.90;;;;;;5229961;28;20074;-74
2023/08/03 07:24:33;;;;;;;7.03;5.68;;;29.80;99.90;;;;;;5230205;28;20475;-85
2023/08/03 07:27:03;;;;;;;8.05;5.28;;;29.80;99.90;;;;;;5229992;28;20094;-78
2023/08/03 07:29:37;;;;;;;7.53;5.45;;;30.00;99.90;;;;;;5229895;28;20444;-74
2023/08/03 07:32:09;;;;;;;7.90;5.60;;;30.00;99.90;;;;;;5227863;28;20045;-75
2023/08/03 07:34:39;;;;;;;6.70;5.25;;;30.20;99.90;;;;;;5228984;28;20060;-75
2023/08/03 07:37:10;;;;;;;6.72;5.47;;;30.20;99.90;;;;;;5228901;28;20067;-76
2023/08/03 07:39:41;;;;;;;7.95;5.32;;;30.40;99.90;;;;;;5229009;28;20031;-75
2023/08/03 07:42:12;;;;;;;6.68;5.97;;;30.50;99.90;;;;;;5228957;28;20059;-75
2023/08/03 07:44:43;;;;;;;8.32;5.47;;;30.70;99.90;;;;;;5228831;28;20032;-77
2023/08/03 07:47:14;;;;;;;11.43;5.68;;;30.80;99.90;;;;;;5227924;28;20059;-74
2023/08/03 07:49:44;;;;;;;6.57;5.22;;;30.70;99.90;;;;;;5228268;28;20496;-75
2023/08/03 07:52:15;;;;;;;6.13;4.95;;;30.80;99.90;;;;;;5229475;28;20045;-75
2023/08/03 07:54:46;;;;;;;5.63;5.03;;;31.00;99.90;;;;;;5229016;28;20032;-75
2023/08/03 07:57:17;;;;;;;7.05;5.70;;;31.10;99.90;;;;;;5229141;28;20032;-75
2023/08/03 07:59:49;;;;;;;6.20;5.60;;;31.20;99.90;;;;;;5228815;28;20021;-75
2023/08/03 08:02:20;;;;;;;6.50;5.75;;;31.30;99.90;;;;;;5229381;28;20032;-74
2023/08/03 08:04:51;;;;;;;5.88;5.28;;;31.30;99.90;;;;;;5244681;28;20036;-74
2023/08/03 08:07:22;;;;;;;8.38;5.72;;;31.30;99.90;;;;;;5229151;28;20025;-74
2023/08/03 08:09:53;;;;;;;6.70;5.65;;;31.60;99.90;;;;;;5229068;28;20090;-74
2023/08/03 08:12:24;;;;;;;6.30;5.45;;;31.70;99.90;;;;;;5227859;28;20055;-75
2023/08/03 08:14:55;;;;;;;8.20;6.15;;;31.60;99.90;;;;;;5228784;28;20037;-75
2023/08/03 08:17:26;;;;;;;7.05;6.35;;;31.80;99.90;;;;;;5228638;28;20048;-74
2023/08/03 08:19:58;;;;;;;11.05;6.53;;;31.90;99.90;;;;;;5227558;28;20033;-74
2023/08/03 08:22:29;;;;;;;7.43;6.45;;;32.10;99.90;;;;;;5227644;28;20020;-73
2023/08/03 08:25:00;;;;;;;10.52;7.18;;;32.20;99.90;;;;;;5228943;28;20025;-74
2023/08/03 08:27:31;;;;;;;8.45;6.00;;;32.20;99.90;;;;;;5228005;28;20021;-74
2023/08/03 08:30:02;;;;;;;11.57;6.05;;;32.40;99.90;;;;;;5227144;28;20025;-74
2023/08/03 08:32:33;;;;;;;6.05;5.45;;;32.50;99.90;;;;;;5227254;28;20045;-74
2023/08/03 08:35:04;;;;;;;10.73;6.07;;;32.60;99.90;;;;;;5227454;28;20025;-75
2023/08/03 08:37:35;;;;;;;6.80;5.85;;;32.70;99.90;;;;;;5227525;28;20033;-80
2023/08/03 08:40:11;;;;;;;7.95;5.22;;;32.50;99.90;;;;;;5226518;28;20028;-74
2023/08/03 08:42:42;;;;;;;7.03;4.93;;;32.60;99.90;;;;;;5242831;28;20021;-74
2023/08/03 08:45:13;;;;;;;5.70;5.20;;;32.70;99.90;;;;;;5227299;28;20511;-73
2023/08/03 08:47:44;;;;;;;6.75;5.70;;;32.80;99.90;;;;;;5227830;28;20110;-75
2023/08/03 08:50:16;;;;;;;5.95;5.35;;;32.90;99.90;;;;;;5228287;28;20029;-74
2023/08/03 08:52:47;;;;;;;7.68;5.07;;;33.00;99.90;;;;;;5228312;28;20036;-75
2023/08/03 08:55:24;;;;;;;6.50;5.18;;;33.10;99.90;;;;;;5243912;28;20021;-74
2023/08/03 08:57:56;;;;;;;5.20;4.70;;;33.20;99.90;;;;;;5228218;28;20017;-74
2023/08/03 09:00:27;;;;;;;5.47;5.07;;;33.20;99.90;;;;;;5228164;28;20107;-75
2023/08/03 09:03:01;;;;;;;6.60;5.97;;;33.30;99.90;;;;;;5227886;28;20465;-74
2023/08/03 09:05:33;;;;;;;8.52;7.88;;;33.50;99.90;;;;;;5226837;28;20075;-74
2023/08/03 09:08:07;;;;;;;7.95;7.35;;;33.50;99.90;;;;;;5228243;28;20028;-74
2023/08/03 09:10:48;;;;;;;8.40;7.78;;;33.50;99.90;;;;;;5227844;28;20027;-74
2023/08/03 09:13:46;;;;;;;8.60;7.90;;;33.70;99.90;;;;;;5225347;28;20041;-74
2023/08/03 09:16:23;;;;;;;8.15;7.55;;;33.80;99.90;;;;;;5225265;28;20075;-75
2023/08/03 09:18:54;;;;;;;8.43;7.82;;;33.80;99.90;;;;;;5226514;28;20448;-74
2023/08/03 09:21:25;;;;;;;9.05;8.15;;;33.90;99.90;;;;;;5227630;28;20029;-74
2023/08/03 09:23:59;;;;;;;8.77;8.00;;;33.90;99.90;;;;;;5225321;28;20029;-74
2023/08/03 09:26:30;;;;;;;8.95;8.35;;;33.80;99.90;;;;;;5224145;28;20571;-74
2023/08/03 09:29:13;;;;;;;9.65;7.53;;;33.80;99.90;;;;;;5226203;28;20040;-75
2023/08/03 09:31:46;;;;;;;8.60;7.10;;;34.00;99.90;;;;;;5226407;28;20021;-75
2023/08/03 09:34:19;;;;;;;8.68;7.25;;;34.30;99.90;;;;;;5216573;28;20087;-75
2023/08/03 09:36:50;;;;;;;9.23;7.47;;;34.30;99.90;;;;;;5218721;28;20022;-74
2023/08/03 09:39:21;;;;;;;8.82;7.35;;;34.40;99.90;;;;;;5216147;28;20017;-74
2023/08/03 09:41:53;;;;;;;8.45;7.40;;;34.30;99.90;;;;;;5214720;28;20381;-75
2023/08/03 09:44:26;;;;;;;11.43;6.65;;;34.60;99.90;;;;;;5216150;28;20125;-81
2023/08/03 09:46:57;;;;;;;7.25;6.63;;;34.50;99.90;;;;;;5210630;28;20106;-74
2023/08/03 09:49:28;;;;;;;6.80;6.13;;;34.40;99.90;;;;;;5206523;28;20033;-74
2023/08/03 09:52:06;;;;;;;7.90;7.18;;;34.30;99.90;;;;;;5206583;28;20108;-75
2023/08/03 09:54:56;;;;;;;7.70;6.75;;;34.40;99.90;;;;;;5206611;28;20112;-74
2023/08/03 09:57:29;;;;;;;7.47;6.65;;;34.30;99.90;;;;;;5206514;28;20026;-75
2023/08/03 10:00:06;;;;;;;7.45;6.70;;;34.60;99.90;;;;;;5206442;28;20491;-74
2023/08/03 10:02:52;;;;;;;7.93;7.13;;;34.60;99.90;;;;;;5206449;28;20049;-74
2023/08/03 10:05:27;;;;;;;6.45;5.85;;;34.50;99.90;;;;;;5205175;28;20017;-75
2023/08/03 10:08:14;;;;;;;11.25;5.47;;;34.60;99.90;;;;;;5206297;28;20018;-74
2023/08/03 10:10:48;;;;;;;6.80;5.22;;;34.50;99.90;;;;;;5206244;28;20413;-75
2023/08/03 10:13:19;;;;;;;6.15;5.43;;;34.70;99.90;;;;;;5205086;28;20038;-74
2023/08/03 10:15:50;;;;;;;7.22;5.38;;;34.80;99.90;;;;;;5206409;28;20029;-74
2023/08/03 10:18:22;;;;;;;6.53;5.30;;;34.80;99.90;;;;;;5204069;28;20037;-74
2023/08/03 10:20:53;;;;;;;9.07;5.65;;;35.00;99.90;;;;;;5213675;28;20031;-75
2023/08/03 10:23:24;;;;;;;6.65;5.93;;;35.00;99.90;;;;;;5219968;28;20437;-74
2023/08/03 10:25:57;;;;;;;6.32;5.72;;;35.20;99.90;;;;;;5209055;28;20481;-75
2023/08/03 10:28:47;;;;;;;9.50;5.68;;;35.10;99.90;;;;;;5215612;28;20028;-75
2023/08/03 10:31:20;;;;;;;5.95;5.45;;;35.20;99.90;;;;;;5214113;28;20055;-74
2023/08/03 10:34:04;;;;;;;6.10;5.53;;;35.10;99.90;;;;;;5212737;28;20477;-75
2023/08/03 10:36:38;;;;;;;5.82;5.22;;;35.30;99.90;;;;;;5213848;28;20021;-75
2023/08/03 10:39:15;;;;;;;6.18;5.10;;;35.30;99.90;;;;;;5211991;28;20051;-75
2023/08/03 10:41:54;;;;;;;6.03;5.50;;;35.30;99.90;;;;;;5216800;28;20118;-75
2023/08/03 10:44:28;;;;;;;6.82;5.75;;;35.30;99.90;;;;;;5217850;28;20116;-76
2023/08/03 10:46:59;;;;;;;5.85;5.30;;;35.40;99.90;;;;;;5214240;28;20025;-74
2023/08/03 10:49:49;;;;;;;5.90;5.15;;;35.40;99.90;;;;;;5212758;28;20045;-75
2023/08/03 10:52:22;;;;;;;6.70;5.53;;;35.50;99.90;;;;;;5215729;28;20034;-74
2023/08/03 10:54:53;;;;;;;5.95;5.35;;;35.40;99.90;;;;;;5215027;28;20087;-75
2023/08/03 10:57:27;;;;;;;6.30;5.70;;;35.50;99.90;;;;;;5216048;28;20018;-74
2023/08/03 11:00:01;;;;;;;6.40;5.32;;;35.80;99.90;;;;;;5215039;28;20362;-74
2023/08/03 11:02:34;;;;;;;6.40;5.38;;;35.70;99.90;;;;;;5214684;28;20021;-75
2023/08/03 11:05:10;;;;;;;5.72;5.15;;;35.70;99.90;;;;;;5196050;28;20033;-75
2023/08/03 11:07:43;;;;;;;5.55;5.07;;;35.70;99.90;;;;;;5215347;28;20075;-75
2023/08/03 11:10:15;;;;;;;7.45;5.00;;;35.80;99.90;;;;;;5216013;28;20059;-75
2023/08/03 11:12:48;;;;;;;5.55;5.00;;;35.80;99.90;;;;;;5216305;28;20116;-74
2023/08/03 11:15:19;;;;;;;7.20;5.40;;;35.90;99.90;;;;;;5212421;28;20381;-74
2023/08/03 11:17:50;;;;;;;6.68;6.05;;;35.90;99.90;;;;;;5213510;28;20108;-75
2023/08/03 11:20:21;;;;;;;5.85;5.35;;;36.00;99.90;;;;;;5213546;28;20112;-74
2023/08/03 11:22:52;;;;;;;6.07;5.40;;;36.00;99.90;;;;;;5216372;28;20100;-79
2023/08/03 11:25:23;;;;;;;6.07;4.85;;;36.10;99.90;;;;;;5209749;28;20076;-76
2023/08/03 11:27:54;;;;;;;10.38;5.53;;;35.90;99.90;;;;;;5213383;28;20033;-83
2023/08/03 11:30:25;;;;;;;6.78;6.10;;;36.10;99.90;;;;;;5206200;28;20075;-74
2023/08/03 11:33:00;;;;;;;8.93;5.85;;;36.00;99.90;;;;;;5203705;28;20149;-82
2023/08/03 11:35:31;;;;;;;7.72;7.00;;;36.00;99.90;;;;;;5206733;28;20084;-82
2023/08/03 11:38:06;;;;;;;9.05;7.50;;;36.20;99.90;;;;;;5207871;28;20029;-75
2023/08/03 11:40:37;;;;;;;9.35;8.55;;;36.30;99.90;;;;;;5209154;28;20425;-74
2023/08/03 11:43:08;;;;;;;8.32;7.55;;;36.30;99.90;;;;;;5208813;28;20043;-75
2023/08/03 11:45:43;;;;;;;10.52;7.47;;;36.30;99.90;;;;;;5209003;28;20017;-75
2023/08/03 11:48:14;;;;;;;7.57;7.03;;;36.50;99.90;;;;;;5210594;28;20504;-74
2023/08/03 11:50:46;;;;;;;8.95;8.25;;;36.40;99.90;;;;;;5228307;28;20128;-74
2023/08/03 11:53:29;;;;;;;10.05;9.35;;;36.30;99.90;;;;;;5229514;28;20039;-74
2023/08/03 11:55:59;;;;;;;11.32;9.73;;;36.50;99.90;;;;;;5229501;28;20025;-77
2023/08/03 11:58:31;;;;;;;12.82;11.10;;;36.40;99.90;;;;;;5229004;28;20511;-81
2023/08/03 12:01:04;;;;;;;10.73;9.68;;;36.40;99.90;;;;;;5228018;28;20127;-75
2023/08/03 12:03:37;;;;;;;9.63;8.98;;;36.50;99.90;;;;;;5229445;28;20032;-82
2023/08/03 12:06:11;;;;;;;11.48;10.40;;;36.50;99.90;;;;;;5228582;28;20021;-74
2023/08/03 12:08:42;;;;;;;10.10;9.02;;;36.60;99.90;;;;;;5228586;28;20033;-74
2023/08/03 12:11:17;;;;;;;12.07;11.10;;;36.50;99.00;;;;;;5228231;28;20017;-75
2023/08/03 12:13:48;;;;;;;16.88;15.55;;;36.50;99.80;;;;;;5227977;28;20100;-75
2023/08/03 12:16:19;;;;;;;19.02;17.80;;;36.50;99.90;;;;;;5226327;28;20111;-74
2023/08/03 12:18:49;;;;;;;13.52;12.55;;;36.50;99.90;;;;;;5227903;28;20033;-78
2023/08/03 12:21:20;;;;;;;16.42;15.38;;;36.50;97.40;;;;;;5226232;28;20062;-80
2023/08/03 12:23:51;;;;;;;13.25;12.05;;;36.60;96.10;;;;;;5225941;28;20021;-78
2023/08/03 12:26:22;;;;;;;14.85;13.60;;;36.60;99.50;;;;;;5228024;28;20148;-76
2023/08/03 12:28:53;;;;;;;14.18;12.70;;;36.50;96.40;;;;;;5227545;28;20021;-74
2023/08/03 12:31:24;;;;;;;15.85;11.73;;;36.30;99.90;;;;;;5228641;28;20037;-77
2023/08/03 12:33:56;;;;;;;11.43;10.52;;;36.20;99.40;;;;;;5222157;28;20091;-74
2023/08/03 12:36:27;;;;;;;9.77;8.82;;;36.20;96.10;;;;;;5226012;28;20040;-74
2023/08/03 12:38:57;;;;;;;6.63;6.00;;;36.20;95.20;;;;;;5227320;28;20029;-74
2023/08/03 12:41:28;;;;;;;9.80;4.88;;;36.00;95.80;;;;;;5228504;28;20028;-74
2023/08/03 12:43:59;;;;;;;6.05;4.63;;;36.10;98.60;;;;;;5227225;28;20021;-75
2023/08/03 12:46:30;;;;;;;8.00;5.13;;;36.00;98.30;;;;;;5226436;28;20040;-75
2023/08/03 12:49:01;;;;;;;6.50;4.75;;;35.90;98.30;;;;;;5226424;28;20068;-75
2023/08/03 12:51:35;;;;;;;5.63;4.90;;;36.00;99.90;;;;;;5228223;28;20370;-75
2023/08/03 12:54:06;;;;;;;8.57;5.43;;;36.00;99.90;;;;;;5226988;28;20037;-75
2023/08/03 12:56:38;;;;;;;5.00;4.60;;;35.90;99.40;;;;;;5226779;28;20124;-74
2023/08/03 12:59:09;;;;;;;5.35;4.85;;;35.80;99.90;;;;;;5228235;28;20111;-74
2023/08/03 13:01:40;;;;;;;7.88;5.07;;;35.70;99.90;;;;;;5225951;28;20029;-75
2023/08/03 13:04:11;;;;;;;11.98;5.38;;;35.60;99.90;;;;;;5227574;28;20034;-75